createdAt,value
2022-11-06T00:04:34.525Z,9.07
2022-11-06T00:09:37.467Z,15.80
2022-11-06T00:14:40.370Z,14.83
2022-11-06T00:19:44.635Z,12.60
2022-11-06T00:24:49.396Z,13.23
2022-11-06T00:29:52.279Z,10.87
2022-11-06T00:34:56.550Z,8.07
2022-11-06T00:40:00.778Z,15.67
2022-11-06T00:45:03.669Z,12.30
2022-11-06T00:50:09.080Z,9.90
2022-11-06T00:55:12.501Z,14.23
2022-11-06T01:00:18.067Z,10.33
2022-11-06T01:05:22.345Z,4.53
2022-11-06T01:10:25.243Z,8.37
2022-11-06T01:15:28.117Z,9.47
2022-11-06T01:20:32.413Z,7.97
2022-11-06T01:25:35.333Z,13.07
2022-11-06T01:30:38.471Z,8.70
2022-11-06T01:35:47.175Z,8.50
2022-11-06T01:40:50.814Z,5.63
2022-11-06T01:45:55.280Z,6.80
2022-11-06T01:51:00.278Z,12.33
2022-11-06T01:56:06.063Z,11.40
2022-11-06T02:01:09.352Z,8.93
2022-11-06T02:06:14.190Z,6.73
2022-11-06T02:11:17.057Z,11.83
2022-11-06T02:16:30.901Z,10.87
2022-11-06T02:21:55.707Z,6.00
2022-11-06T02:27:10.391Z,6.17
2022-11-06T02:32:19.790Z,8.40
2022-11-06T02:37:29.177Z,8.13
2022-11-06T02:42:38.361Z,9.57
2022-11-06T02:47:44.253Z,14.00
2022-11-06T02:52:53.262Z,9.37
2022-11-06T02:58:01.566Z,9.90
2022-11-06T03:03:11.582Z,6.47
2022-11-06T03:08:21.679Z,6.30
2022-11-06T03:13:33.718Z,6.40
2022-11-06T03:18:43.210Z,6.30
2022-11-06T03:23:53.701Z,7.00
2022-11-06T03:29:02.893Z,8.07
2022-11-06T03:34:11.690Z,6.30
2022-11-06T03:39:20.589Z,6.37
2022-11-06T03:44:29.522Z,8.17
2022-11-06T03:49:36.393Z,6.93
2022-11-06T03:54:43.352Z,6.20
2022-11-06T03:59:52.591Z,9.37
2022-11-06T04:04:59.961Z,13.70
2022-11-06T04:10:39.468Z,9.37
2022-11-06T04:15:49.026Z,7.60
2022-11-06T04:21:18.559Z,7.60
2022-11-06T04:32:07.942Z,10.40
2022-11-06T04:37:16.136Z,22.13
2022-11-06T04:42:26.943Z,65.40
2022-11-06T04:47:31.366Z,28.60
2022-11-06T04:52:36.376Z,24.10
2022-11-06T04:57:39.295Z,10.63
2022-11-06T05:02:43.569Z,9.30
2022-11-06T05:07:46.458Z,10.03
2022-11-06T05:12:49.375Z,8.17
2022-11-06T05:17:53.653Z,5.40
2022-11-06T05:23:00.668Z,7.23
2022-11-06T05:28:07.063Z,8.00
2022-11-06T05:33:11.347Z,7.20
2022-11-06T05:38:14.636Z,13.27
2022-11-06T05:43:17.761Z,13.57
2022-11-06T05:48:22.258Z,9.90
2022-11-06T05:53:25.154Z,7.87
2022-11-06T05:58:28.715Z,8.20
2022-11-06T06:03:33.055Z,9.20
2022-11-06T06:08:36.212Z,7.40
2022-11-06T06:13:39.178Z,8.00
2022-11-06T06:18:43.455Z,7.87
2022-11-06T06:23:46.592Z,14.63
2022-11-06T06:28:50.208Z,9.30
2022-11-06T06:33:54.748Z,10.63
2022-11-06T06:38:57.888Z,11.20
2022-11-06T06:44:00.965Z,13.40
2022-11-06T06:49:05.459Z,10.77
2022-11-06T06:54:08.618Z,11.10
2022-11-06T06:59:11.523Z,10.97
2022-11-06T07:04:16.739Z,14.10
2022-11-06T07:09:19.789Z,10.50
2022-11-06T07:14:22.732Z,8.83
2022-11-06T07:19:27.573Z,5.07
2022-11-06T07:24:30.696Z,6.97
2022-11-06T07:29:33.624Z,15.13
2022-11-06T07:34:38.928Z,8.47
2022-11-06T07:39:41.973Z,11.87
2022-11-06T07:44:44.975Z,8.17
2022-11-06T07:49:51.113Z,8.60
2022-11-06T07:54:54.653Z,9.57
2022-11-06T07:59:57.598Z,8.80
2022-11-06T08:05:02.057Z,10.27
2022-11-06T08:10:05.959Z,9.50
2022-11-06T08:15:09.520Z,13.50
2022-11-06T08:20:13.959Z,11.57
2022-11-06T08:25:16.965Z,8.70
2022-11-06T08:30:19.890Z,10.07
2022-11-06T08:35:24.175Z,9.73
2022-11-06T08:40:30.882Z,11.50
2022-11-06T08:45:37.184Z,7.93
2022-11-06T08:50:42.475Z,10.20
2022-11-06T08:55:45.619Z,10.23
2022-11-06T09:00:48.667Z,11.93
2022-11-06T09:05:53.017Z,13.63
2022-11-06T09:10:58.627Z,9.33
2022-11-06T09:16:02.210Z,12.43
2022-11-06T09:21:06.835Z,13.87
2022-11-06T09:26:09.971Z,12.60
2022-11-06T09:31:12.950Z,12.03
2022-11-06T09:36:17.209Z,14.27
2022-11-06T09:41:24.873Z,9.40
2022-11-06T09:46:31.519Z,6.63
2022-11-06T09:51:40.325Z,7.87
2022-11-06T09:56:46.648Z,7.90
2022-11-06T10:01:54.476Z,6.90
2022-11-06T10:06:59.031Z,7.80
2022-11-06T10:12:10.586Z,5.80
2022-11-06T10:17:24.292Z,6.07
2022-11-06T10:22:37.736Z,6.30
2022-11-06T10:27:42.905Z,9.67
2022-11-06T10:33:05.685Z,5.27
2022-11-06T10:38:15.433Z,7.60
2022-11-06T10:43:31.866Z,4.97
2022-11-06T10:48:41.525Z,4.43
2022-11-06T10:53:56.428Z,7.57
2022-11-06T10:58:59.600Z,6.33
2022-11-06T11:04:02.610Z,5.57
2022-11-06T11:09:28.534Z,6.37
2022-11-06T11:14:33.152Z,5.87
2022-11-06T11:19:37.414Z,9.00
2022-11-06T11:25:00.621Z,4.77
2022-11-06T11:30:05.597Z,5.90
2022-11-06T11:35:12.974Z,7.90
2022-11-06T11:40:37.498Z,5.53
2022-11-06T11:45:40.457Z,10.30
2022-11-06T11:50:43.515Z,4.77
2022-11-06T11:55:50.418Z,7.30
2022-11-06T12:00:56.865Z,4.20
2022-11-06T12:06:10.305Z,3.90
2022-11-06T12:11:20.728Z,4.83
2022-11-06T12:16:23.899Z,5.27
2022-11-06T12:21:31.166Z,4.30
2022-11-06T12:26:39.894Z,4.10
2022-11-06T12:31:48.901Z,4.27
2022-11-06T12:37:12.678Z,3.93
2022-11-06T12:42:18.775Z,6.10
2022-11-06T12:47:30.467Z,5.90
2022-11-06T12:52:55.389Z,7.67
2022-11-06T12:58:15.196Z,42.63
2022-11-06T13:03:50.251Z,6.40
2022-11-06T13:08:59.687Z,5.30
2022-11-06T13:14:20.644Z,6.60
2022-11-06T13:19:31.642Z,6.63
2022-11-06T13:24:41.597Z,8.47
2022-11-06T13:29:46.724Z,7.73
2022-11-06T13:34:53.588Z,7.67
2022-11-06T13:40:02.868Z,7.30
2022-11-06T13:45:09.542Z,13.30
2022-11-06T13:50:20.838Z,14.00
2022-11-06T13:55:34.417Z,12.90
2022-11-06T14:00:49.318Z,15.83
2022-11-06T14:05:58.775Z,13.17
2022-11-06T14:11:06.701Z,10.90
2022-11-06T14:16:29.972Z,12.20
2022-11-06T14:21:51.910Z,13.27
2022-11-06T14:26:54.871Z,14.73
2022-11-06T14:32:03.258Z,15.83
2022-11-06T14:37:39.450Z,15.00
2022-11-06T14:42:45.677Z,15.63
2022-11-06T14:47:56.555Z,13.97
2022-11-06T14:53:02.573Z,12.50
2022-11-06T14:58:20.123Z,18.50
2022-11-06T15:03:33.538Z,14.10
2022-11-06T15:09:13.012Z,15.10
2022-11-06T15:14:53.709Z,14.53
2022-11-06T15:20:08.975Z,11.53
2022-11-06T15:25:22.822Z,14.67
2022-11-06T15:30:27.130Z,13.20
2022-11-06T15:35:36.757Z,13.27
2022-11-06T15:40:41.829Z,15.47
2022-11-06T15:45:44.884Z,17.97
2022-11-06T15:50:49.172Z,19.30
2022-11-06T15:55:56.801Z,21.13
2022-11-06T16:01:00.979Z,26.57
2022-11-06T16:06:06.105Z,26.10
2022-11-06T16:11:13.594Z,23.27
2022-11-06T16:16:35.936Z,23.80
2022-11-06T16:21:40.345Z,25.37
2022-11-06T16:26:48.162Z,25.17
2022-11-06T16:32:01.101Z,21.80
2022-11-06T16:37:07.177Z,24.27
2022-11-06T16:42:27.197Z,22.03
2022-11-06T16:47:30.600Z,20.67
2022-11-06T16:52:38.862Z,23.10
2022-11-06T16:57:45.988Z,23.07
2022-11-06T17:02:51.481Z,25.07
2022-11-06T17:08:08.082Z,22.60
2022-11-06T17:13:14.769Z,20.17
2022-11-06T17:18:20.481Z,21.53
2022-11-06T17:23:27.458Z,23.20
2022-11-06T17:28:30.553Z,20.60
2022-11-06T17:33:33.506Z,23.27
2022-11-06T17:43:41.068Z,28.20
2022-11-06T17:48:43.996Z,30.40
2022-11-06T17:53:49.464Z,28.97
2022-11-06T17:58:52.818Z,25.27
2022-11-06T18:03:55.854Z,23.40
2022-11-06T18:09:01.238Z,28.00
2022-11-06T18:14:04.939Z,28.33
2022-11-06T18:19:09.405Z,34.90
2022-11-06T18:24:13.836Z,46.40
2022-11-06T18:29:16.762Z,26.63
2022-11-06T18:34:21.308Z,23.30
2022-11-06T18:39:25.885Z,38.33
2022-11-06T18:44:28.904Z,27.13
2022-11-06T18:49:31.871Z,25.00
2022-11-06T18:54:36.266Z,24.50
2022-11-06T18:59:39.171Z,26.73
2022-11-06T19:04:42.101Z,26.50
2022-11-06T19:09:46.423Z,28.70
2022-11-06T19:14:49.376Z,25.33
2022-11-06T19:19:52.393Z,39.13
2022-11-06T19:24:56.702Z,42.77
2022-11-06T19:29:59.659Z,29.27
2022-11-06T19:35:02.603Z,23.70
2022-11-06T19:40:08.738Z,23.93
2022-11-06T19:45:12.070Z,31.47
2022-11-06T19:50:15.032Z,27.77
2022-11-06T19:55:26.311Z,25.33
2022-11-06T20:00:30.599Z,21.70
2022-11-06T20:05:33.547Z,29.60
2022-11-06T20:10:38.252Z,24.80
2022-11-06T20:15:41.263Z,17.97
2022-11-06T20:20:44.173Z,20.17
2022-11-06T20:25:53.065Z,18.33
2022-11-06T20:30:56.155Z,17.50
2022-11-06T20:35:59.130Z,14.73
2022-11-06T20:41:03.425Z,20.17
2022-11-06T20:46:06.757Z,21.10
2022-11-06T20:51:11.975Z,48.20
2022-11-06T20:56:18.367Z,33.00
2022-11-06T21:01:23.662Z,28.40
2022-11-06T21:06:27.764Z,21.10
2022-11-06T21:11:32.133Z,18.77
2022-11-06T21:16:37.283Z,18.07
2022-11-06T21:21:40.850Z,17.60
2022-11-06T21:26:45.196Z,18.90
2022-11-06T21:31:49.285Z,14.70
2022-11-06T21:36:52.412Z,16.80
2022-11-06T21:41:56.732Z,14.47
2022-11-06T21:46:59.741Z,14.50
2022-11-06T21:52:17.655Z,15.60
2022-11-06T21:57:23.181Z,11.90
2022-11-06T22:02:26.250Z,9.43
2022-11-06T22:07:29.309Z,13.90
2022-11-06T22:12:35.408Z,13.57
2022-11-06T22:17:38.311Z,12.70
2022-11-06T22:22:41.304Z,10.90
2022-11-06T22:27:45.688Z,8.97
2022-11-06T22:32:48.656Z,11.63
2022-11-06T22:37:51.580Z,19.53
2022-11-06T22:42:55.859Z,11.77
2022-11-06T22:47:59.163Z,7.90
2022-11-06T22:53:02.131Z,9.33
2022-11-06T22:58:06.505Z,12.73
2022-11-06T23:03:09.463Z,8.67
2022-11-06T23:08:12.440Z,11.27
2022-11-06T23:13:16.821Z,10.00
2022-11-06T23:18:19.741Z,10.47
2022-11-06T23:23:22.667Z,12.30
2022-11-06T23:28:26.994Z,13.53
2022-11-06T23:33:31.653Z,12.03
2022-11-06T23:38:34.580Z,12.07
2022-11-06T23:43:38.860Z,14.43
2022-11-06T23:48:41.776Z,13.60
2022-11-06T23:53:44.788Z,10.20
2022-11-06T23:58:49.123Z,13.23
